Flight Track Log - Related Links

Times and Time Zones

All times are in EDT time to prevent confusion due to time zone crossing. See the N724CM flight status page for this flight to view local times or setup timezone preferences in your user account.


Time Position Orientation Groundspeed Altitude Reporting Facility
EDT Latitude Longitude Course Direction KTS MPH feet Rate Location/Type
Mon 10:43:00 AM 34.8333 -82.5309 270° West  Level FlightAware Approximate
Mon 10:43:44 AM 34.8753 -82.4461 259° West 142 163 6,800  Level Atlanta Center
Mon 10:44:00 AM 34.8278 -82.5838 259° West  Level FlightAware Approximate
Mon 10:44:44 AM 34.8614 -82.4972 252° West 150 173 7,500  Level Atlanta Center
Mon 10:45:00 AM 34.8191 -82.6364 259° West  Level FlightAware Approximate
Mon 10:45:44 AM 34.8475 -82.5406 249° West 150 173 8,100  Level Atlanta Center
Mon 10:46:00 AM 34.8103 -82.6889 259° West  Level FlightAware Approximate
Mon 10:46:44 AM 34.8333 -82.5889 250° West 150 173 8,100  Level Atlanta Center
Mon 10:47:00 AM 34.8016 -82.7415 259° West  Level FlightAware Approximate
Mon 10:47:44 AM 34.8194 -82.6472 254° West 158 182 8,100  Level Atlanta Center
Mon 10:48:00 AM 34.7928 -82.7940 259° West  Level FlightAware Approximate
Mon 10:48:44 AM 34.8094 -82.6981 257° West 163 188 8,100  Level Atlanta Center
Mon 10:49:44 AM 34.7997 -82.7589 259° West 170 196 8,100  Level Atlanta Center
Mon 10:50:44 AM 34.7919 -82.8119 260° West 170 196 8,100 50 Level Atlanta Center
Mon 10:51:44 AM 34.7800 -82.8628 254° West 163 188 8,200 50 Climbing Atlanta Center
Mon 10:52:44 AM 34.7722 -82.9186 260° West 163 188 8,200  Level Atlanta Center
Mon 10:53:44 AM 34.7622 -82.9667 256° West 163 188 8,200  Level Atlanta Center
Mon 10:54:44 AM 34.7522 -83.0275 259° West 170 196 8,200  Level Atlanta Center
Mon 10:55:44 AM 34.7422 -83.0783 257° West 170 196 8,200  Level Atlanta Center
Mon 10:56:44 AM 34.7322 -83.1339 258° West 164 189 8,200  Level Atlanta Center
Mon 10:57:44 AM 34.7264 -83.1819 262° West 159 183 8,200 -50 Level Atlanta Center
Mon 10:58:44 AM 34.7142 -83.2403 256° West 166 191 8,100  Descending Atlanta Center
Mon 10:59:44 AM 34.7042 -83.2933 257° West 167 192 8,200 50 Climbing Atlanta Center
Mon 11:00:44 AM 34.6961 -83.3439 259° West 159 183 8,200  Level Atlanta Center
Mon 11:01:44 AM 34.6858 -83.3997 257° West 159 183 8,200  Level Atlanta Center
Mon 11:02:44 AM 34.6736 -83.4528 254° West 164 189 8,200  Level Atlanta Center
Mon 11:03:44 AM 34.6633 -83.5111 258° West 164 189 8,200  Level Atlanta Center
Mon 11:04:44 AM 34.6553 -83.5589 258° West 164 189 8,200 -50 Level Atlanta Center
Mon 11:05:44 AM 34.6492 -83.6094 262° West 159 183 8,100  Descending Atlanta Center
Mon 11:06:44 AM 34.6389 -83.6625 257° West 159 183 8,200  Climbing Atlanta Center
Mon 11:07:44 AM 34.6308 -83.7131 259° West 159 183 8,100 -50 Descending Atlanta Center
Mon 11:08:44 AM 34.6206 -83.7661 257° West 159 183 8,100 50 Level Atlanta Center
Mon 11:09:44 AM 34.6100 -83.8242 258° West 159 183 8,200 50 Climbing Atlanta Center
Mon 11:10:44 AM 34.5997 -83.8747 256° West 164 189 8,200  Level Atlanta Center
Mon 11:11:44 AM 34.5914 -83.9278 259° West 163 188 8,200 -50 Level Atlanta Center
Mon 11:12:44 AM 34.5811 -83.9808 257° West 158 182 8,100  Descending Atlanta Center
Mon 11:13:44 AM 34.5706 -84.0311 256° West 158 182 8,200 50 Climbing Atlanta Center
Mon 11:14:44 AM 34.5622 -84.0817 259° West 158 182 8,200 -50 Level Atlanta Center
Mon 11:15:44 AM 34.5519 -84.1347 257° West 163 188 8,100 -50 Descending Atlanta Center
Mon 11:16:44 AM 34.5433 -84.1850 258° West 158 182 8,100 50 Level Atlanta Center
Mon 11:17:44 AM 34.5331 -84.2331 255° West 158 182 8,200 50 Climbing Atlanta Center
Mon 11:18:44 AM 34.5244 -84.2833 258° West 158 182 8,200 -50 Level Atlanta Center
Mon 11:19:44 AM 34.5161 -84.3311 258° West 158 182 8,100  Descending Atlanta Center
Mon 11:20:44 AM 34.5075 -84.3792 258° West 158 182 8,200 50 Climbing Atlanta Center
Mon 11:21:44 AM 34.4950 -84.4294 253° West 158 182 8,200  Level Atlanta Center
Mon 11:22:44 AM 34.4781 -84.4747 246° West 158 182 8,200  Level Atlanta Center
Mon 11:23:44 AM 34.4592 -84.5200 243° Southwest 158 182 8,200  Level Atlanta Center
Mon 11:24:44 AM 34.4422 -84.5678 247° West 158 182 8,200 -50 Level Atlanta Center
Mon 11:25:44 AM 34.4233 -84.6156 244° Southwest 158 182 8,100  Descending Atlanta Center
Mon 11:26:44 AM 34.4042 -84.6606 243° Southwest 158 182 8,200 50 Climbing Atlanta Center
Mon 11:27:44 AM 34.3853 -84.7108 246° West 153 176 8,200  Level Atlanta Center
Mon 11:28:44 AM 34.3683 -84.7561 246° West 153 176 8,200 -50 Level Atlanta Center
Mon 11:29:44 AM 34.3511 -84.8036 246° West 153 176 8,100 -50 Descending Atlanta Center
Mon 11:30:44 AM 34.3322 -84.8514 244° Southwest 153 176 8,100 50 Level Atlanta Center
Mon 11:31:44 AM 34.3131 -84.8939 241° Southwest 153 176 8,200 50 Climbing Atlanta Center
Mon 11:32:44 AM 34.2961 -84.9439 248° West 153 176 8,200  Level Atlanta Center
Mon 11:33:44 AM 34.2769 -84.9892 243° Southwest 153 176 8,200  Level Atlanta Center
Mon 11:34:44 AM 34.2597 -85.0367 246° West 153 176 8,200  Level Atlanta Center
Mon 11:35:44 AM 34.2386 -85.0817 240° Southwest 153 176 8,200 -100 Level Atlanta Center
Mon 11:36:44 AM 34.2217 -85.1217 243° Southwest 153 176 8,000  Descending Atlanta Center
Mon 11:37:44 AM 34.2044 -85.1767 249° West 170 196 8,200 100 Climbing Atlanta Center
Mon 11:38:44 AM 34.1850 -85.2242 244° Southwest 165 190 8,200  Level Atlanta Center
Mon 11:39:44 AM 34.1681 -85.2664 244° Southwest 160 184 8,200 -50 Level Atlanta Center
Mon 11:40:44 AM 34.1489 -85.3139 244° Southwest 160 184 8,100  Descending Atlanta Center
Mon 11:41:44 AM 34.1294 -85.3614 244° Southwest 153 176 8,200 -100 Climbing Atlanta Center
Mon 11:42:44 AM 34.1081 -85.4111 243° Southwest 160 184 7,900 -350 Descending Atlanta Center
Mon 11:43:44 AM 34.0908 -85.4611 247° West 160 184 7,500 -400 Descending Atlanta Center
Mon 11:44:44 AM 34.0694 -85.5108 243° Southwest 167 192 7,100 -350 Descending Atlanta Center
Mon 11:45:44 AM 34.0500 -85.5606 245° Southwest 172 198 6,800 -350 Descending Atlanta Center
Mon 11:46:44 AM 34.0283 -85.6178 245° Southwest 172 198 6,400 -350 Descending Atlanta Center
Mon 11:47:44 AM 34.0067 -85.6700 243° Southwest 172 198 6,100 -150 Descending Atlanta Center
Mon 11:48:44 AM 33.9894 -85.7150 245° Southwest 166 191 6,100  Level Atlanta Center
Mon 11:49:44 AM 33.9700 -85.7622 244° Southwest 166 191 6,100  Level Atlanta Center
Mon 11:50:35 AM 33.9506 -85.8042 241° Southwest 154 177 6,100  Level Atlanta Center
Mon 11:51:29 AM 33.9333 -85.8439 242° Southwest 152 175 6,100  Level Atlanta Center
Mon 11:51:44 AM 33.9333 -85.8464 270° West 155 178 6,100  Level Atlanta Center
Mon 11:52:30 AM 33.9161 -85.8886 244° Southwest 153 176 6,100  Level Atlanta Center
Mon 11:53:31 AM 33.8967 -85.9358 244° Southwest 152 175 6,100  Level Atlanta Center
Mon 11:54:37 AM 33.8747 -85.9878 243° Southwest 151 174 6,100 -94 Level Atlanta Center
Mon 11:55:38 AM 33.8617 -86.0375 252° West 155 178 5,900 -295 Descending Atlanta Center
Mon 11:56:39 AM 33.8419 -86.0872 244° Southwest 169 194 5,500 -397 Descending Atlanta Center
Mon 11:57:39 AM 33.8244 -86.1367 247° West 165 190 5,100 -198 Descending Atlanta Center
Mon 11:58:40 AM 33.8089 -86.1839 248° West 150 173 5,100  Level Atlanta Center
Mon 11:59:40 AM 33.7914 -86.2283 245° Southwest 143 165 5,100  Level Atlanta Center
Mon 12:00:41 PM 33.7761 -86.2756 249° West 145 167 5,100  Level Atlanta Center
Mon 12:01:48 PM 33.7606 -86.3250 249° West 145 167 5,100 -248 Level Atlanta Center
Mon 12:02:42 PM 33.7450 -86.3672 246° West 151 174 4,600 -550 Descending Atlanta Center
Mon 12:03:37 PM 33.7297 -86.4117 248° West 157 181 4,100 -246 Descending Atlanta Center
Mon 12:04:44 PM 33.7142 -86.4611 249° West 139 160 4,100  Level Atlanta Center
Mon 12:05:44 PM 33.6967 -86.5006 242° Southwest 136 157 4,100 -52 Level Atlanta Center
Mon 12:06:39 PM 33.6853 -86.5403 251° West 143 165 4,000 -155 Descending Atlanta Center
Mon 12:07:40 PM 33.6636 -86.5797 237° Southwest 147 169 3,800 -595 Descending Atlanta Center
Mon 12:08:40 PM 33.6378 -86.6264 236° Southwest 167 192 2,800 -744 Descending Atlanta Center
Mon 12:09:41 PM 33.6139 -86.6681 235° Southwest 154 177 2,300 -541 Descending Atlanta Center
Mon 12:10:42 PM 33.5964 -86.7022 238° Southwest 109 125 1,700 -595 Descending Atlanta Center
Mon 12:11:42 PM 33.5769 -86.7342 234° Southwest 110 127 1,100 -600 Descending Atlanta Center
Mon 12:13:00 PM 33.5639 -86.7523 231° Southwest  Level Estimated
Mon 12:20:00 PM 33.5639 -86.7523 231° Southwest  Level Estimated

Login

Don't have an account? Register now (free) for customized features, flight alerts, and more!